sensor_id;sensor_type;location;lat;lon;timestamp;P1;P2;P0
67892;PMS7003;54688;52.376;16.744;2022-12-18T00:02:11;60;42;
67892;PMS7003;54688;52.376;16.744;2022-12-18T00:05:14;53;40;
67892;PMS7003;54688;52.376;16.744;2022-12-18T00:08:17;57;42;
67892;PMS7003;54688;52.376;16.744;2022-12-18T00:11:20;52;39;
67892;PMS7003;54688;52.376;16.744;2022-12-18T00:14:23;56;42;
67892;PMS7003;54688;52.376;16.744;2022-12-18T00:17:26;54;43;
67892;PMS7003;54688;52.376;16.744;2022-12-18T00:20:28;56;39;
67892;PMS7003;54688;52.376;16.744;2022-12-18T00:23:31;50;37;
67892;PMS7003;54688;52.376;16.744;2022-12-18T00:26:34;56;39;
67892;PMS7003;54688;52.376;16.744;2022-12-18T00:29:40;63;42;
67892;PMS7003;54688;52.376;16.744;2022-12-18T00:32:42;55;38;
67892;PMS7003;54688;52.376;16.744;2022-12-18T00:35:44;46;35;
67892;PMS7003;54688;52.376;16.744;2022-12-18T00:38:47;56;38;
67892;PMS7003;54688;52.376;16.744;2022-12-18T00:41:50;46;32;
67892;PMS7003;54688;52.376;16.744;2022-12-18T00:44:52;43;36;
67892;PMS7003;54688;52.376;16.744;2022-12-18T00:47:54;56;38;
67892;PMS7003;54688;52.376;16.744;2022-12-18T00:50:56;54;39;
67892;PMS7003;54688;52.376;16.744;2022-12-18T00:53:58;57;41;
67892;PMS7003;54688;52.376;16.744;2022-12-18T00:57:01;52;37;
67892;PMS7003;54688;52.376;16.744;2022-12-18T01:00:07;59;43;
67892;PMS7003;54688;52.376;16.744;2022-12-18T01:03:13;59;37;
67892;PMS7003;54688;52.376;16.744;2022-12-18T01:06:16;56;38;
67892;PMS7003;54688;52.376;16.744;2022-12-18T01:09:18;67;41;
67892;PMS7003;54688;52.376;16.744;2022-12-18T01:12:20;54;35;
67892;PMS7003;54688;52.376;16.744;2022-12-18T01:15:22;59;41;
67892;PMS7003;54688;52.376;16.744;2022-12-18T01:18:25;65;42;
67892;PMS7003;54688;52.376;16.744;2022-12-18T01:21:27;59;40;
67892;PMS7003;54688;52.376;16.744;2022-12-18T01:24:30;52;39;
67892;PMS7003;54688;52.376;16.744;2022-12-18T01:27:33;57;42;
67892;PMS7003;54688;52.376;16.744;2022-12-18T01:30:35;67;46;
67892;PMS7003;54688;52.376;16.744;2022-12-18T01:33:38;60;42;
67892;PMS7003;54688;52.376;16.744;2022-12-18T01:36:40;56;38;
67892;PMS7003;54688;52.376;16.744;2022-12-18T01:39:42;54;36;
67892;PMS7003;54688;52.376;16.744;2022-12-18T01:42:49;63;40;
67892;PMS7003;54688;52.376;16.744;2022-12-18T01:45:52;50;37;
67892;PMS7003;54688;52.376;16.744;2022-12-18T01:48:57;47;31;
67892;PMS7003;54688;52.376;16.744;2022-12-18T01:55:00;51;40;
67892;PMS7003;54688;52.376;16.744;2022-12-18T01:58:03;55;39;
67892;PMS7003;54688;52.376;16.744;2022-12-18T02:01:06;63;44;
67892;PMS7003;54688;52.376;16.744;2022-12-18T02:04:25;52;40;
67892;PMS7003;54688;52.376;16.744;2022-12-18T02:07:35;45;33;
67892;PMS7003;54688;52.376;16.744;2022-12-18T02:10:45;55;40;
67892;PMS7003;54688;52.376;16.744;2022-12-18T02:13:59;58;37;
67892;PMS7003;54688;52.376;16.744;2022-12-18T02:17:07;40;36;
67892;PMS7003;54688;52.376;16.744;2022-12-18T02:20:15;59;42;
67892;PMS7003;54688;52.376;16.744;2022-12-18T02:23:26;55;40;
67892;PMS7003;54688;52.376;16.744;2022-12-18T02:29:35;53;39;
67892;PMS7003;54688;52.376;16.744;2022-12-18T02:32:42;51;39;
67892;PMS7003;54688;52.376;16.744;2022-12-18T02:35:45;56;42;
67892;PMS7003;54688;52.376;16.744;2022-12-18T02:38:49;55;36;
67892;PMS7003;54688;52.376;16.744;2022-12-18T02:41:52;59;44;
67892;PMS7003;54688;52.376;16.744;2022-12-18T02:47:54;60;42;
67892;PMS7003;54688;52.376;16.744;2022-12-18T02:51:03;65;43;
67892;PMS7003;54688;52.376;16.744;2022-12-18T02:54:17;57;40;
67892;PMS7003;54688;52.376;16.744;2022-12-18T02:57:32;61;39;
67892;PMS7003;54688;52.376;16.744;2022-12-18T03:00:39;62;41;
67892;PMS7003;54688;52.376;16.744;2022-12-18T03:03:47;60;39;
67892;PMS7003;54688;52.376;16.744;2022-12-18T03:06:54;56;42;
67892;PMS7003;54688;52.376;16.744;2022-12-18T03:09:57;64;43;
67892;PMS7003;54688;52.376;16.744;2022-12-18T03:13:02;58;39;
67892;PMS7003;54688;52.376;16.744;2022-12-18T03:16:09;45;37;
67892;PMS7003;54688;52.376;16.744;2022-12-18T03:19:16;48;39;
67892;PMS7003;54688;52.376;16.744;2022-12-18T03:22:20;45;35;
67892;PMS7003;54688;52.376;16.744;2022-12-18T03:25:25;57;36;
67892;PMS7003;54688;52.376;16.744;2022-12-18T03:28:31;51;39;
67892;PMS7003;54688;52.376;16.744;2022-12-18T03:31:37;50;37;
67892;PMS7003;54688;52.376;16.744;2022-12-18T03:34:43;50;33;
67892;PMS7003;54688;52.376;16.744;2022-12-18T03:37:49;52;36;
67892;PMS7003;54688;52.376;16.744;2022-12-18T03:40:58;53;40;
67892;PMS7003;54688;52.376;16.744;2022-12-18T03:47:05;55;39;
67892;PMS7003;54688;52.376;16.744;2022-12-18T03:50:12;49;37;
67892;PMS7003;54688;52.376;16.744;2022-12-18T03:53:23;48;35;
67892;PMS7003;54688;52.376;16.744;2022-12-18T03:56:29;50;38;
67892;PMS7003;54688;52.376;16.744;2022-12-18T04:02:32;60;43;
67892;PMS7003;54688;52.376;16.744;2022-12-18T04:05:37;53;36;
67892;PMS7003;54688;52.376;16.744;2022-12-18T04:08:40;44;34;
67892;PMS7003;54688;52.376;16.744;2022-12-18T04:11:43;55;35;
67892;PMS7003;54688;52.376;16.744;2022-12-18T04:14:45;55;39;
67892;PMS7003;54688;52.376;16.744;2022-12-18T04:17:48;44;34;
67892;PMS7003;54688;52.376;16.744;2022-12-18T04:20:51;39;34;
67892;PMS7003;54688;52.376;16.744;2022-12-18T04:23:53;50;38;
67892;PMS7003;54688;52.376;16.744;2022-12-18T04:26:55;60;39;
67892;PMS7003;54688;52.376;16.744;2022-12-18T04:29:57;58;36;
67892;PMS7003;54688;52.376;16.744;2022-12-18T04:33:00;55;36;
67892;PMS7003;54688;52.376;16.744;2022-12-18T04:36:02;55;39;
67892;PMS7003;54688;52.376;16.744;2022-12-18T04:42:03;61;36;
67892;PMS7003;54688;52.376;16.744;2022-12-18T04:45:06;58;40;
67892;PMS7003;54688;52.376;16.744;2022-12-18T04:48:09;46;36;
67892;PMS7003;54688;52.376;16.744;2022-12-18T04:51:12;56;40;
67892;PMS7003;54688;52.376;16.744;2022-12-18T04:54:14;49;32;
67892;PMS7003;54688;52.376;16.744;2022-12-18T04:57:16;62;42;
67892;PMS7003;54688;52.376;16.744;2022-12-18T05:00:18;63;46;
67892;PMS7003;54688;52.376;16.744;2022-12-18T05:03:21;58;36;
67892;PMS7003;54688;52.376;16.744;2022-12-18T05:06:24;57;38;
67892;PMS7003;54688;52.376;16.744;2022-12-18T05:09:26;59;42;
67892;PMS7003;54688;52.376;16.744;2022-12-18T05:12:28;57;40;
67892;PMS7003;54688;52.376;16.744;2022-12-18T05:15:31;38;34;
67892;PMS7003;54688;52.376;16.744;2022-12-18T05:18:34;57;39;
67892;PMS7003;54688;52.376;16.744;2022-12-18T05:21:37;56;39;
67892;PMS7003;54688;52.376;16.744;2022-12-18T05:24:39;46;36;
67892;PMS7003;54688;52.376;16.744;2022-12-18T05:27:42;54;33;
67892;PMS7003;54688;52.376;16.744;2022-12-18T05:30:47;51;40;
67892;PMS7003;54688;52.376;16.744;2022-12-18T05:33:49;52;36;
67892;PMS7003;54688;52.376;16.744;2022-12-18T05:36:52;55;38;
67892;PMS7003;54688;52.376;16.744;2022-12-18T05:39:54;57;40;
67892;PMS7003;54688;52.376;16.744;2022-12-18T05:42:56;35;25;
67892;PMS7003;54688;52.376;16.744;2022-12-18T05:46:03;41;28;
67892;PMS7003;54688;52.376;16.744;2022-12-18T05:49:05;47;35;
67892;PMS7003;54688;52.376;16.744;2022-12-18T05:52:07;47;33;
67892;PMS7003;54688;52.376;16.744;2022-12-18T05:55:09;37;30;
67892;PMS7003;54688;52.376;16.744;2022-12-18T05:58:12;41;31;
67892;PMS7003;54688;52.376;16.744;2022-12-18T06:01:18;36;31;
67892;PMS7003;54688;52.376;16.744;2022-12-18T06:04:21;75;50;
67892;PMS7003;54688;52.376;16.744;2022-12-18T06:07:23;89;63;
67892;PMS7003;54688;52.376;16.744;2022-12-18T06:10:26;51;40;
67892;PMS7003;54688;52.376;16.744;2022-12-18T06:13:29;48;30;
67892;PMS7003;54688;52.376;16.744;2022-12-18T06:16:32;50;38;
67892;PMS7003;54688;52.376;16.744;2022-12-18T06:19:34;46;35;
67892;PMS7003;54688;52.376;16.744;2022-12-18T06:22:36;55;35;
67892;PMS7003;54688;52.376;16.744;2022-12-18T06:25:39;51;37;
67892;PMS7003;54688;52.376;16.744;2022-12-18T06:28:42;40;26;
67892;PMS7003;54688;52.376;16.744;2022-12-18T06:31:44;50;40;
67892;PMS7003;54688;52.376;16.744;2022-12-18T06:34:47;45;36;
67892;PMS7003;54688;52.376;16.744;2022-12-18T06:37:49;52;40;
67892;PMS7003;54688;52.376;16.744;2022-12-18T06:40:51;68;49;
67892;PMS7003;54688;52.376;16.744;2022-12-18T06:43:53;67;45;
67892;PMS7003;54688;52.376;16.744;2022-12-18T06:46:55;59;43;
67892;PMS7003;54688;52.376;16.744;2022-12-18T06:49:57;55;40;
67892;PMS7003;54688;52.376;16.744;2022-12-18T06:52:59;61;40;
67892;PMS7003;54688;52.376;16.744;2022-12-18T06:56:02;67;46;
67892;PMS7003;54688;52.376;16.744;2022-12-18T06:59:04;42;28;
67892;PMS7003;54688;52.376;16.744;2022-12-18T07:02:10;56;33;
67892;PMS7003;54688;52.376;16.744;2022-12-18T07:05:13;50;35;
67892;PMS7003;54688;52.376;16.744;2022-12-18T07:08:15;41;31;
67892;PMS7003;54688;52.376;16.744;2022-12-18T07:11:18;54;38;
67892;PMS7003;54688;52.376;16.744;2022-12-18T07:14:21;52;35;
67892;PMS7003;54688;52.376;16.744;2022-12-18T07:17:23;49;35;
67892;PMS7003;54688;52.376;16.744;2022-12-18T07:23:26;41;31;
67892;PMS7003;54688;52.376;16.744;2022-12-18T07:26:27;57;36;
67892;PMS7003;54688;52.376;16.744;2022-12-18T07:29:30;51;29;
67892;PMS7003;54688;52.376;16.744;2022-12-18T07:32:32;53;39;
67892;PMS7003;54688;52.376;16.744;2022-12-18T07:35:36;36;29;
67892;PMS7003;54688;52.376;16.744;2022-12-18T07:38:39;46;36;
67892;PMS7003;54688;52.376;16.744;2022-12-18T07:41:41;58;39;
67892;PMS7003;54688;52.376;16.744;2022-12-18T07:44:43;54;37;
67892;PMS7003;54688;52.376;16.744;2022-12-18T07:47:45;42;27;
67892;PMS7003;54688;52.376;16.744;2022-12-18T07:50:48;51;36;
67892;PMS7003;54688;52.376;16.744;2022-12-18T07:53:50;46;35;
67892;PMS7003;54688;52.376;16.744;2022-12-18T07:56:52;57;34;
67892;PMS7003;54688;52.376;16.744;2022-12-18T07:59:55;55;41;
67892;PMS7003;54688;52.376;16.744;2022-12-18T08:02:57;47;36;
67892;PMS7003;54688;52.376;16.744;2022-12-18T08:06:00;55;39;
67892;PMS7003;54688;52.376;16.744;2022-12-18T08:09:03;51;39;
67892;PMS7003;54688;52.376;16.744;2022-12-18T08:12:05;55;38;
67892;PMS7003;54688;52.376;16.744;2022-12-18T08:15:08;59;38;
67892;PMS7003;54688;52.376;16.744;2022-12-18T08:18:10;63;39;
67892;PMS7003;54688;52.376;16.744;2022-12-18T08:21:14;54;37;
67892;PMS7003;54688;52.376;16.744;2022-12-18T08:24:17;58;38;
67892;PMS7003;54688;52.376;16.744;2022-12-18T08:27:20;56;39;
67892;PMS7003;54688;52.376;16.744;2022-12-18T08:30:23;60;47;
67892;PMS7003;54688;52.376;16.744;2022-12-18T08:33:25;56;35;
67892;PMS7003;54688;52.376;16.744;2022-12-18T08:36:28;56;42;
67892;PMS7003;54688;52.376;16.744;2022-12-18T08:42:30;52;36;
67892;PMS7003;54688;52.376;16.744;2022-12-18T08:45:33;52;36;
67892;PMS7003;54688;52.376;16.744;2022-12-18T08:48:35;52;38;
67892;PMS7003;54688;52.376;16.744;2022-12-18T08:51:38;45;36;
67892;PMS7003;54688;52.376;16.744;2022-12-18T08:54:41;50;34;
67892;PMS7003;54688;52.376;16.744;2022-12-18T08:57:47;41;33;
67892;PMS7003;54688;52.376;16.744;2022-12-18T09:00:49;44;35;
67892;PMS7003;54688;52.376;16.744;2022-12-18T09:03:51;47;32;
67892;PMS7003;54688;52.376;16.744;2022-12-18T09:06:53;45;35;
67892;PMS7003;54688;52.376;16.744;2022-12-18T09:09:56;56;39;
67892;PMS7003;54688;52.376;16.744;2022-12-18T09:12:58;57;41;
67892;PMS7003;54688;52.376;16.744;2022-12-18T09:16:03;49;36;
67892;PMS7003;54688;52.376;16.744;2022-12-18T09:19:05;47;38;
67892;PMS7003;54688;52.376;16.744;2022-12-18T09:22:08;48;32;
67892;PMS7003;54688;52.376;16.744;2022-12-18T09:25:10;64;40;
67892;PMS7003;54688;52.376;16.744;2022-12-18T09:28:14;50;41;
67892;PMS7003;54688;52.376;16.744;2022-12-18T09:31:20;56;39;
67892;PMS7003;54688;52.376;16.744;2022-12-18T09:34:24;53;42;
67892;PMS7003;54688;52.376;16.744;2022-12-18T09:37:26;55;38;
67892;PMS7003;54688;52.376;16.744;2022-12-18T09:43:30;63;42;
67892;PMS7003;54688;52.376;16.744;2022-12-18T09:46:38;49;38;
67892;PMS7003;54688;52.376;16.744;2022-12-18T09:52:44;59;45;
67892;PMS7003;54688;52.376;16.744;2022-12-18T09:55:48;61;39;
67892;PMS7003;54688;52.376;16.744;2022-12-18T09:58:55;57;44;
67892;PMS7003;54688;52.376;16.744;2022-12-18T10:01:59;58;40;
67892;PMS7003;54688;52.376;16.744;2022-12-18T10:05:05;58;45;
67892;PMS7003;54688;52.376;16.744;2022-12-18T10:08:13;73;56;
67892;PMS7003;54688;52.376;16.744;2022-12-18T10:11:32;74;51;
67892;PMS7003;54688;52.376;16.744;2022-12-18T10:14:43;60;44;
67892;PMS7003;54688;52.376;16.744;2022-12-18T10:24:01;62;47;
67892;PMS7003;54688;52.376;16.744;2022-12-18T10:30:13;64;43;
67892;PMS7003;54688;52.376;16.744;2022-12-18T10:33:19;54;41;
67892;PMS7003;54688;52.376;16.744;2022-12-18T10:36:23;58;42;
67892;PMS7003;54688;52.376;16.744;2022-12-18T10:39:25;52;39;
67892;PMS7003;54688;52.376;16.744;2022-12-18T10:42:27;56;42;
67892;PMS7003;54688;52.376;16.744;2022-12-18T10:45:29;54;42;
67892;PMS7003;54688;52.376;16.744;2022-12-18T10:48:33;51;39;
67892;PMS7003;54688;52.376;16.744;2022-12-18T10:51:37;51;38;
67892;PMS7003;54688;52.376;16.744;2022-12-18T10:54:40;51;40;
67892;PMS7003;54688;52.376;16.744;2022-12-18T10:57:41;51;40;
67892;PMS7003;54688;52.376;16.744;2022-12-18T11:00:44;56;40;
67892;PMS7003;54688;52.376;16.744;2022-12-18T11:03:58;57;40;
67892;PMS7003;54688;52.376;16.744;2022-12-18T11:07:04;52;37;
67892;PMS7003;54688;52.376;16.744;2022-12-18T11:10:16;50;36;
67892;PMS7003;54688;52.376;16.744;2022-12-18T11:13:21;55;37;
67892;PMS7003;54688;52.376;16.744;2022-12-18T11:16:24;56;37;
67892;PMS7003;54688;52.376;16.744;2022-12-18T11:19:32;53;37;
67892;PMS7003;54688;52.376;16.744;2022-12-18T11:25:34;63;47;
67892;PMS7003;54688;52.376;16.744;2022-12-18T11:28:38;51;37;
67892;PMS7003;54688;52.376;16.744;2022-12-18T11:31:41;55;38;
67892;PMS7003;54688;52.376;16.744;2022-12-18T11:34:46;56;37;
67892;PMS7003;54688;52.376;16.744;2022-12-18T11:37:54;49;37;
67892;PMS7003;54688;52.376;16.744;2022-12-18T11:41:00;51;34;
67892;PMS7003;54688;52.376;16.744;2022-12-18T11:44:06;51;39;
67892;PMS7003;54688;52.376;16.744;2022-12-18T11:47:18;51;38;
67892;PMS7003;54688;52.376;16.744;2022-12-18T11:50:24;62;39;
67892;PMS7003;54688;52.376;16.744;2022-12-18T11:53:29;50;37;
67892;PMS7003;54688;52.376;16.744;2022-12-18T11:56:35;46;34;
67892;PMS7003;54688;52.376;16.744;2022-12-18T11:59:42;44;35;
67892;PMS7003;54688;52.376;16.744;2022-12-18T12:03:07;53;40;
67892;PMS7003;54688;52.376;16.744;2022-12-18T12:06:19;39;32;
67892;PMS7003;54688;52.376;16.744;2022-12-18T12:09:28;44;37;
67892;PMS7003;54688;52.376;16.744;2022-12-18T12:12:39;43;37;
67892;PMS7003;54688;52.376;16.744;2022-12-18T12:18:59;55;37;
67892;PMS7003;54688;52.376;16.744;2022-12-18T12:22:08;59;41;
67892;PMS7003;54688;52.376;16.744;2022-12-18T12:25:21;53;41;
67892;PMS7003;54688;52.376;16.744;2022-12-18T12:28:42;59;45;
67892;PMS7003;54688;52.376;16.744;2022-12-18T12:32:01;74;54;
67892;PMS7003;54688;52.376;16.744;2022-12-18T12:35:17;54;38;
67892;PMS7003;54688;52.376;16.744;2022-12-18T12:38:25;59;44;
67892;PMS7003;54688;52.376;16.744;2022-12-18T12:41:32;57;44;
67892;PMS7003;54688;52.376;16.744;2022-12-18T12:44:39;77;52;
67892;PMS7003;54688;52.376;16.744;2022-12-18T12:47:45;62;45;
67892;PMS7003;54688;52.376;16.744;2022-12-18T12:50:49;62;44;
67892;PMS7003;54688;52.376;16.744;2022-12-18T12:53:54;70;49;
67892;PMS7003;54688;52.376;16.744;2022-12-18T13:00:01;63;44;
67892;PMS7003;54688;52.376;16.744;2022-12-18T13:03:12;46;36;
67892;PMS7003;54688;52.376;16.744;2022-12-18T13:06:22;42;37;
67892;PMS7003;54688;52.376;16.744;2022-12-18T13:09:29;54;39;
67892;PMS7003;54688;52.376;16.744;2022-12-18T13:12:32;48;35;
67892;PMS7003;54688;52.376;16.744;2022-12-18T13:15:38;53;36;
67892;PMS7003;54688;52.376;16.744;2022-12-18T13:21:41;52;35;
67892;PMS7003;54688;52.376;16.744;2022-12-18T13:24:44;51;39;
67892;PMS7003;54688;52.376;16.744;2022-12-18T13:27:57;62;44;
67892;PMS7003;54688;52.376;16.744;2022-12-18T13:31:02;62;45;
67892;PMS7003;54688;52.376;16.744;2022-12-18T13:34:15;59;41;
67892;PMS7003;54688;52.376;16.744;2022-12-18T13:40:54;63;44;
67892;PMS7003;54688;52.376;16.744;2022-12-18T13:44:10;61;44;
67892;PMS7003;54688;52.376;16.744;2022-12-18T13:47:26;61;43;
67892;PMS7003;54688;52.376;16.744;2022-12-18T13:50:29;56;43;
67892;PMS7003;54688;52.376;16.744;2022-12-18T13:56:32;62;44;
67892;PMS7003;54688;52.376;16.744;2022-12-18T13:59:36;59;45;
67892;PMS7003;54688;52.376;16.744;2022-12-18T14:02:38;59;45;
67892;PMS7003;54688;52.376;16.744;2022-12-18T14:05:44;66;50;
67892;PMS7003;54688;52.376;16.744;2022-12-18T14:08:46;70;49;
67892;PMS7003;54688;52.376;16.744;2022-12-18T14:11:49;65;48;
67892;PMS7003;54688;52.376;16.744;2022-12-18T14:14:53;67;48;
67892;PMS7003;54688;52.376;16.744;2022-12-18T14:17:57;65;48;
67892;PMS7003;54688;52.376;16.744;2022-12-18T14:21:02;62;49;
67892;PMS7003;54688;52.376;16.744;2022-12-18T14:27:19;72;49;
67892;PMS7003;54688;52.376;16.744;2022-12-18T14:30:27;74;53;
67892;PMS7003;54688;52.376;16.744;2022-12-18T14:33:29;70;52;
67892;PMS7003;54688;52.376;16.744;2022-12-18T14:36:31;72;54;
67892;PMS7003;54688;52.376;16.744;2022-12-18T14:39:34;66;50;
67892;PMS7003;54688;52.376;16.744;2022-12-18T14:42:36;70;52;
67892;PMS7003;54688;52.376;16.744;2022-12-18T14:45:41;68;53;
67892;PMS7003;54688;52.376;16.744;2022-12-18T14:48:47;72;53;
67892;PMS7003;54688;52.376;16.744;2022-12-18T14:51:51;71;50;
67892;PMS7003;54688;52.376;16.744;2022-12-18T14:54:53;69;48;
67892;PMS7003;54688;52.376;16.744;2022-12-18T14:57:56;62;50;
67892;PMS7003;54688;52.376;16.744;2022-12-18T15:00:59;67;48;
67892;PMS7003;54688;52.376;16.744;2022-12-18T15:04:02;68;49;
67892;PMS7003;54688;52.376;16.744;2022-12-18T15:07:09;71;52;
67892;PMS7003;54688;52.376;16.744;2022-12-18T15:10:14;79;54;
67892;PMS7003;54688;52.376;16.744;2022-12-18T15:13:21;78;58;
67892;PMS7003;54688;52.376;16.744;2022-12-18T15:16:25;83;63;
67892;PMS7003;54688;52.376;16.744;2022-12-18T15:19:34;84;60;
67892;PMS7003;54688;52.376;16.744;2022-12-18T15:22:38;81;59;
67892;PMS7003;54688;52.376;16.744;2022-12-18T15:25:40;84;56;
67892;PMS7003;54688;52.376;16.744;2022-12-18T15:28:45;75;53;
67892;PMS7003;54688;52.376;16.744;2022-12-18T15:31:59;78;56;
67892;PMS7003;54688;52.376;16.744;2022-12-18T15:35:07;88;61;
67892;PMS7003;54688;52.376;16.744;2022-12-18T15:38:13;110;87;
67892;PMS7003;54688;52.376;16.744;2022-12-18T15:41:18;95;72;
67892;PMS7003;54688;52.376;16.744;2022-12-18T15:44:22;88;66;
67892;PMS7003;54688;52.376;16.744;2022-12-18T15:47:24;89;60;
67892;PMS7003;54688;52.376;16.744;2022-12-18T15:50:26;88;65;
67892;PMS7003;54688;52.376;16.744;2022-12-18T15:53:31;79;60;
67892;PMS7003;54688;52.376;16.744;2022-12-18T15:56:34;84;61;
67892;PMS7003;54688;52.376;16.744;2022-12-18T15:59:36;92;76;
67892;PMS7003;54688;52.376;16.744;2022-12-18T16:02:39;94;73;
67892;PMS7003;54688;52.376;16.744;2022-12-18T16:05:42;79;59;
67892;PMS7003;54688;52.376;16.744;2022-12-18T16:11:44;73;53;
67892;PMS7003;54688;52.376;16.744;2022-12-18T16:20:45;72;52;
67892;PMS7003;54688;52.376;16.744;2022-12-18T16:23:47;75;54;
67892;PMS7003;54688;52.376;16.744;2022-12-18T16:26:50;77;59;
67892;PMS7003;54688;52.376;16.744;2022-12-18T16:29:52;82;59;
67892;PMS7003;54688;52.376;16.744;2022-12-18T16:32:54;76;53;
67892;PMS7003;54688;52.376;16.744;2022-12-18T16:35:56;70;47;
67892;PMS7003;54688;52.376;16.744;2022-12-18T16:38:59;68;48;
67892;PMS7003;54688;52.376;16.744;2022-12-18T16:42:01;80;59;
67892;PMS7003;54688;52.376;16.744;2022-12-18T16:45:05;74;57;
67892;PMS7003;54688;52.376;16.744;2022-12-18T16:48:07;75;55;
67892;PMS7003;54688;52.376;16.744;2022-12-18T16:51:10;77;54;
67892;PMS7003;54688;52.376;16.744;2022-12-18T16:54:12;85;59;
67892;PMS7003;54688;52.376;16.744;2022-12-18T16:57:16;83;64;
67892;PMS7003;54688;52.376;16.744;2022-12-18T17:03:18;78;55;
67892;PMS7003;54688;52.376;16.744;2022-12-18T17:06:21;76;51;
67892;PMS7003;54688;52.376;16.744;2022-12-18T17:09:24;64;50;
67892;PMS7003;54688;52.376;16.744;2022-12-18T17:12:26;71;53;
67892;PMS7003;54688;52.376;16.744;2022-12-18T17:15:28;69;51;
67892;PMS7003;54688;52.376;16.744;2022-12-18T17:18:31;69;51;
67892;PMS7003;54688;52.376;16.744;2022-12-18T17:21:33;77;52;
67892;PMS7003;54688;52.376;16.744;2022-12-18T17:24:35;75;55;
67892;PMS7003;54688;52.376;16.744;2022-12-18T17:27:37;70;54;
67892;PMS7003;54688;52.376;16.744;2022-12-18T17:30:40;74;54;
67892;PMS7003;54688;52.376;16.744;2022-12-18T17:33:42;82;59;
67892;PMS7003;54688;52.376;16.744;2022-12-18T17:36:45;74;55;
67892;PMS7003;54688;52.376;16.744;2022-12-18T17:39:47;75;54;
67892;PMS7003;54688;52.376;16.744;2022-12-18T17:42:51;73;52;
67892;PMS7003;54688;52.376;16.744;2022-12-18T17:45:54;77;57;
67892;PMS7003;54688;52.376;16.744;2022-12-18T17:51:54;67;49;
67892;PMS7003;54688;52.376;16.744;2022-12-18T17:54:57;68;52;
67892;PMS7003;54688;52.376;16.744;2022-12-18T17:57:59;85;61;
67892;PMS7003;54688;52.376;16.744;2022-12-18T18:01:03;96;70;
67892;PMS7003;54688;52.376;16.744;2022-12-18T18:04:06;83;61;
67892;PMS7003;54688;52.376;16.744;2022-12-18T18:07:08;93;67;
67892;PMS7003;54688;52.376;16.744;2022-12-18T18:10:10;93;79;
67892;PMS7003;54688;52.376;16.744;2022-12-18T18:13:17;87;62;
67892;PMS7003;54688;52.376;16.744;2022-12-18T18:16:20;118;91;
67892;PMS7003;54688;52.376;16.744;2022-12-18T18:19:23;86;61;
67892;PMS7003;54688;52.376;16.744;2022-12-18T18:22:25;82;57;
67892;PMS7003;54688;52.376;16.744;2022-12-18T18:25:27;69;53;
67892;PMS7003;54688;52.376;16.744;2022-12-18T18:28:29;73;51;
67892;PMS7003;54688;52.376;16.744;2022-12-18T18:31:33;71;51;
67892;PMS7003;54688;52.376;16.744;2022-12-18T18:34:35;74;53;
67892;PMS7003;54688;52.376;16.744;2022-12-18T18:37:38;81;56;
67892;PMS7003;54688;52.376;16.744;2022-12-18T18:40:40;76;53;
67892;PMS7003;54688;52.376;16.744;2022-12-18T18:43:43;74;51;
67892;PMS7003;54688;52.376;16.744;2022-12-18T18:46:46;75;57;
67892;PMS7003;54688;52.376;16.744;2022-12-18T18:49:48;69;54;
67892;PMS7003;54688;52.376;16.744;2022-12-18T18:52:51;77;54;
67892;PMS7003;54688;52.376;16.744;2022-12-18T18:55:53;75;56;
67892;PMS7003;54688;52.376;16.744;2022-12-18T18:58:56;74;56;
67892;PMS7003;54688;52.376;16.744;2022-12-18T19:01:59;91;62;
67892;PMS7003;54688;52.376;16.744;2022-12-18T19:05:01;93;67;
67892;PMS7003;54688;52.376;16.744;2022-12-18T19:11:04;94;67;
67892;PMS7003;54688;52.376;16.744;2022-12-18T19:14:08;86;62;
67892;PMS7003;54688;52.376;16.744;2022-12-18T19:17:10;104;82;
67892;PMS7003;54688;52.376;16.744;2022-12-18T19:20:13;90;64;
67892;PMS7003;54688;52.376;16.744;2022-12-18T19:23:16;101;67;
67892;PMS7003;54688;52.376;16.744;2022-12-18T19:26:19;81;59;
67892;PMS7003;54688;52.376;16.744;2022-12-18T19:29:21;80;56;
67892;PMS7003;54688;52.376;16.744;2022-12-18T19:32:24;74;56;
67892;PMS7003;54688;52.376;16.744;2022-12-18T19:35:28;74;56;
67892;PMS7003;54688;52.376;16.744;2022-12-18T19:38:31;74;51;
67892;PMS7003;54688;52.376;16.744;2022-12-18T19:41:33;71;57;
67892;PMS7003;54688;52.376;16.744;2022-12-18T19:44:36;86;62;
67892;PMS7003;54688;52.376;16.744;2022-12-18T19:47:39;76;56;
67892;PMS7003;54688;52.376;16.744;2022-12-18T19:50:41;68;50;
67892;PMS7003;54688;52.376;16.744;2022-12-18T19:53:44;77;53;
67892;PMS7003;54688;52.376;16.744;2022-12-18T19:56:47;75;55;
67892;PMS7003;54688;52.376;16.744;2022-12-18T19:59:49;74;54;
67892;PMS7003;54688;52.376;16.744;2022-12-18T20:02:52;68;50;
67892;PMS7003;54688;52.376;16.744;2022-12-18T20:05:55;80;55;
67892;PMS7003;54688;52.376;16.744;2022-12-18T20:08:59;72;55;
67892;PMS7003;54688;52.376;16.744;2022-12-18T20:12:02;79;55;
67892;PMS7003;54688;52.376;16.744;2022-12-18T20:15:06;82;59;
67892;PMS7003;54688;52.376;16.744;2022-12-18T20:18:09;85;59;
67892;PMS7003;54688;52.376;16.744;2022-12-18T20:21:11;86;63;
67892;PMS7003;54688;52.376;16.744;2022-12-18T20:24:14;92;62;
67892;PMS7003;54688;52.376;16.744;2022-12-18T20:27:16;81;54;
67892;PMS7003;54688;52.376;16.744;2022-12-18T20:30:18;109;79;
67892;PMS7003;54688;52.376;16.744;2022-12-18T20:33:21;110;84;
67892;PMS7003;54688;52.376;16.744;2022-12-18T20:36:24;104;81;
67892;PMS7003;54688;52.376;16.744;2022-12-18T20:39:26;129;95;
67892;PMS7003;54688;52.376;16.744;2022-12-18T20:42:29;89;67;
67892;PMS7003;54688;52.376;16.744;2022-12-18T20:45:31;97;74;
67892;PMS7003;54688;52.376;16.744;2022-12-18T20:48:34;83;63;
67892;PMS7003;54688;52.376;16.744;2022-12-18T20:51:36;91;64;
67892;PMS7003;54688;52.376;16.744;2022-12-18T20:54:39;96;63;
67892;PMS7003;54688;52.376;16.744;2022-12-18T20:57:41;92;71;
67892;PMS7003;54688;52.376;16.744;2022-12-18T21:00:44;94;75;
67892;PMS7003;54688;52.376;16.744;2022-12-18T21:03:46;85;62;
67892;PMS7003;54688;52.376;16.744;2022-12-18T21:06:49;106;79;
67892;PMS7003;54688;52.376;16.744;2022-12-18T21:09:52;90;63;
67892;PMS7003;54688;52.376;16.744;2022-12-18T21:12:55;82;59;
67892;PMS7003;54688;52.376;16.744;2022-12-18T21:15:58;83;62;
67892;PMS7003;54688;52.376;16.744;2022-12-18T21:19:01;80;56;
67892;PMS7003;54688;52.376;16.744;2022-12-18T21:22:03;72;51;